sensor_id;sensor_type;location;lat;lon;timestamp;temperature;humidity
80695;DHT22;70059;42.702;23.312;2023-09-19T00:00:37;18.20;57.90
80695;DHT22;70059;42.702;23.312;2023-09-19T00:03:03;18.20;56.80
80695;DHT22;70059;42.702;23.312;2023-09-19T00:05:34;18.20;56.90
80695;DHT22;70059;42.702;23.312;2023-09-19T00:08:00;18.20;57.20
80695;DHT22;70059;42.702;23.312;2023-09-19T00:10:30;18.10;57.40
80695;DHT22;70059;42.702;23.312;2023-09-19T00:13:03;18.10;57.80
80695;DHT22;70059;42.702;23.312;2023-09-19T00:15:40;18.20;57.20
80695;DHT22;70059;42.702;23.312;2023-09-19T00:18:06;18.20;57.50
80695;DHT22;70059;42.702;23.312;2023-09-19T00:20:35;18.20;57.30
80695;DHT22;70059;42.702;23.312;2023-09-19T00:23:00;18.20;57.30
80695;DHT22;70059;42.702;23.312;2023-09-19T00:25:35;18.30;57.50
80695;DHT22;70059;42.702;23.312;2023-09-19T00:28:01;18.20;57.00
80695;DHT22;70059;42.702;23.312;2023-09-19T00:30:27;18.10;57.60
80695;DHT22;70059;42.702;23.312;2023-09-19T00:32:53;18.10;57.90
80695;DHT22;70059;42.702;23.312;2023-09-19T00:35:18;18.10;58.20
80695;DHT22;70059;42.702;23.312;2023-09-19T00:37:44;18.10;58.00
80695;DHT22;70059;42.702;23.312;2023-09-19T00:40:11;18.10;57.80
80695;DHT22;70059;42.702;23.312;2023-09-19T00:42:41;18.10;58.40
80695;DHT22;70059;42.702;23.312;2023-09-19T00:45:08;18.10;58.20
80695;DHT22;70059;42.702;23.312;2023-09-19T00:47:44;18.10;58.30
80695;DHT22;70059;42.702;23.312;2023-09-19T00:50:11;18.00;58.20
80695;DHT22;70059;42.702;23.312;2023-09-19T00:52:42;18.00;58.50
80695;DHT22;70059;42.702;23.312;2023-09-19T00:55:09;18.00;59.70
80695;DHT22;70059;42.702;23.312;2023-09-19T00:57:36;17.90;58.50
80695;DHT22;70059;42.702;23.312;2023-09-19T01:00:04;17.90;58.80
80695;DHT22;70059;42.702;23.312;2023-09-19T01:02:34;17.80;59.40
80695;DHT22;70059;42.702;23.312;2023-09-19T01:05:00;17.90;59.00
80695;DHT22;70059;42.702;23.312;2023-09-19T01:07:27;17.80;59.10
80695;DHT22;70059;42.702;23.312;2023-09-19T01:09:58;17.60;59.60
80695;DHT22;70059;42.702;23.312;2023-09-19T01:12:37;17.70;59.70
80695;DHT22;70059;42.702;23.312;2023-09-19T01:15:18;17.70;59.70
80695;DHT22;70059;42.702;23.312;2023-09-19T01:18:11;17.80;59.60
80695;DHT22;70059;42.702;23.312;2023-09-19T01:26:44;17.50;60.00
80695;DHT22;70059;42.702;23.312;2023-09-19T01:29:38;17.30;61.50
80695;DHT22;70059;42.702;23.312;2023-09-19T01:32:06;17.30;61.70
80695;DHT22;70059;42.702;23.312;2023-09-19T01:34:48;17.40;61.10
80695;DHT22;70059;42.702;23.312;2023-09-19T01:37:16;17.40;61.10
80695;DHT22;70059;42.702;23.312;2023-09-19T01:39:52;17.40;61.70
80695;DHT22;70059;42.702;23.312;2023-09-19T01:47:52;17.50;61.20
80695;DHT22;70059;42.702;23.312;2023-09-19T01:50:43;17.60;61.20
80695;DHT22;70059;42.702;23.312;2023-09-19T01:53:23;17.60;60.70
80695;DHT22;70059;42.702;23.312;2023-09-19T01:55:51;17.70;60.70
80695;DHT22;70059;42.702;23.312;2023-09-19T01:59:04;17.60;60.20
80695;DHT22;70059;42.702;23.312;2023-09-19T02:01:13;17.60;60.70
80695;DHT22;70059;42.702;23.312;2023-09-19T02:03:41;17.60;61.30
80695;DHT22;70059;42.702;23.312;2023-09-19T02:06:16;17.50;61.10
80695;DHT22;70059;42.702;23.312;2023-09-19T02:08:44;17.50;60.80
80695;DHT22;70059;42.702;23.312;2023-09-19T02:11:13;17.50;61.70
80695;DHT22;70059;42.702;23.312;2023-09-19T02:13:39;17.40;61.20
80695;DHT22;70059;42.702;23.312;2023-09-19T02:16:06;17.30;61.70
80695;DHT22;70059;42.702;23.312;2023-09-19T02:18:32;17.20;62.20
80695;DHT22;70059;42.702;23.312;2023-09-19T02:21:01;17.30;62.20
80695;DHT22;70059;42.702;23.312;2023-09-19T02:23:27;17.30;61.90
80695;DHT22;70059;42.702;23.312;2023-09-19T02:25:53;17.40;61.70
80695;DHT22;70059;42.702;23.312;2023-09-19T02:28:19;17.40;62.10
80695;DHT22;70059;42.702;23.312;2023-09-19T02:30:48;17.30;61.70
80695;DHT22;70059;42.702;23.312;2023-09-19T02:33:14;17.20;62.50
80695;DHT22;70059;42.702;23.312;2023-09-19T02:35:40;17.30;61.70
80695;DHT22;70059;42.702;23.312;2023-09-19T02:38:06;17.30;62.10
80695;DHT22;70059;42.702;23.312;2023-09-19T02:40:37;17.40;61.90
80695;DHT22;70059;42.702;23.312;2023-09-19T02:43:03;17.40;61.70
80695;DHT22;70059;42.702;23.312;2023-09-19T02:45:30;17.30;62.10
80695;DHT22;70059;42.702;23.312;2023-09-19T02:47:56;17.30;61.80
80695;DHT22;70059;42.702;23.312;2023-09-19T02:50:22;17.30;62.10
80695;DHT22;70059;42.702;23.312;2023-09-19T02:52:48;17.20;61.80
80695;DHT22;70059;42.702;23.312;2023-09-19T02:55:16;17.20;62.90
80695;DHT22;70059;42.702;23.312;2023-09-19T02:57:50;17.10;62.80
80695;DHT22;70059;42.702;23.312;2023-09-19T03:00:17;17.10;62.80
80695;DHT22;70059;42.702;23.312;2023-09-19T03:02:55;17.20;62.80
80695;DHT22;70059;42.702;23.312;2023-09-19T03:05:22;17.20;62.50
80695;DHT22;70059;42.702;23.312;2023-09-19T03:07:51;17.20;62.60
80695;DHT22;70059;42.702;23.312;2023-09-19T03:10:18;17.30;62.10
80695;DHT22;70059;42.702;23.312;2023-09-19T03:12:44;17.30;62.20
80695;DHT22;70059;42.702;23.312;2023-09-19T03:15:10;17.20;62.30
80695;DHT22;70059;42.702;23.312;2023-09-19T03:17:36;17.20;62.20
80695;DHT22;70059;42.702;23.312;2023-09-19T03:20:02;17.10;62.70
80695;DHT22;70059;42.702;23.312;2023-09-19T03:22:30;17.10;63.80
80695;DHT22;70059;42.702;23.312;2023-09-19T03:24:55;17.10;63.60
80695;DHT22;70059;42.702;23.312;2023-09-19T03:27:21;17.10;63.50
80695;DHT22;70059;42.702;23.312;2023-09-19T03:29:47;17.40;61.50
80695;DHT22;70059;42.702;23.312;2023-09-19T03:32:13;17.70;59.50
80695;DHT22;70059;42.702;23.312;2023-09-19T03:34:39;17.70;59.70
80695;DHT22;70059;42.702;23.312;2023-09-19T03:37:09;17.60;61.70
80695;DHT22;70059;42.702;23.312;2023-09-19T03:39:35;17.30;62.10
80695;DHT22;70059;42.702;23.312;2023-09-19T03:42:02;17.10;62.80
80695;DHT22;70059;42.702;23.312;2023-09-19T03:44:30;17.00;62.70
80695;DHT22;70059;42.702;23.312;2023-09-19T03:46:56;17.00;63.60
80695;DHT22;70059;42.702;23.312;2023-09-19T03:49:22;17.00;64.50
80695;DHT22;70059;42.702;23.312;2023-09-19T03:51:48;16.90;63.40
80695;DHT22;70059;42.702;23.312;2023-09-19T03:54:14;16.90;64.40
80695;DHT22;70059;42.702;23.312;2023-09-19T03:56:39;16.80;64.70
80695;DHT22;70059;42.702;23.312;2023-09-19T03:59:05;16.90;64.30
80695;DHT22;70059;42.702;23.312;2023-09-19T04:03:59;16.90;64.30
80695;DHT22;70059;42.702;23.312;2023-09-19T04:06:33;17.00;63.80
80695;DHT22;70059;42.702;23.312;2023-09-19T04:09:01;17.00;63.30
80695;DHT22;70059;42.702;23.312;2023-09-19T04:13:55;17.10;62.80
80695;DHT22;70059;42.702;23.312;2023-09-19T04:16:20;17.20;62.80
80695;DHT22;70059;42.702;23.312;2023-09-19T04:18:46;17.20;62.30
80695;DHT22;70059;42.702;23.312;2023-09-19T04:21:12;17.30;61.80
80695;DHT22;70059;42.702;23.312;2023-09-19T04:23:38;17.30;60.90
80695;DHT22;70059;42.702;23.312;2023-09-19T04:26:04;17.30;60.80
80695;DHT22;70059;42.702;23.312;2023-09-19T04:28:35;17.30;61.00
80695;DHT22;70059;42.702;23.312;2023-09-19T04:31:03;17.30;61.10
80695;DHT22;70059;42.702;23.312;2023-09-19T04:33:29;17.30;61.40
80695;DHT22;70059;42.702;23.312;2023-09-19T04:35:55;17.40;60.60
80695;DHT22;70059;42.702;23.312;2023-09-19T04:38:21;17.40;60.80
80695;DHT22;70059;42.702;23.312;2023-09-19T04:40:48;17.40;60.90
80695;DHT22;70059;42.702;23.312;2023-09-19T04:43:14;17.40;60.70
80695;DHT22;70059;42.702;23.312;2023-09-19T04:46:07;17.40;60.50
80695;DHT22;70059;42.702;23.312;2023-09-19T04:48:33;17.50;60.90
80695;DHT22;70059;42.702;23.312;2023-09-19T04:51:00;17.60;60.20
80695;DHT22;70059;42.702;23.312;2023-09-19T04:53:28;17.60;60.20
80695;DHT22;70059;42.702;23.312;2023-09-19T04:55:54;17.70;59.60
80695;DHT22;70059;42.702;23.312;2023-09-19T04:58:21;17.60;60.50
80695;DHT22;70059;42.702;23.312;2023-09-19T05:00:47;17.70;60.70
80695;DHT22;70059;42.702;23.312;2023-09-19T05:03:13;17.80;59.80
80695;DHT22;70059;42.702;23.312;2023-09-19T05:05:38;18.00;59.40
80695;DHT22;70059;42.702;23.312;2023-09-19T05:08:10;18.20;58.40
80695;DHT22;70059;42.702;23.312;2023-09-19T05:10:36;18.30;58.20
80695;DHT22;70059;42.702;23.312;2023-09-19T05:13:06;18.50;57.30
80695;DHT22;70059;42.702;23.312;2023-09-19T05:15:38;18.70;57.20
80695;DHT22;70059;42.702;23.312;2023-09-19T05:18:04;19.00;55.70
80695;DHT22;70059;42.702;23.312;2023-09-19T05:20:33;19.10;55.90
80695;DHT22;70059;42.702;23.312;2023-09-19T05:25:37;19.30;54.60
80695;DHT22;70059;42.702;23.312;2023-09-19T05:28:10;19.40;54.40
80695;DHT22;70059;42.702;23.312;2023-09-19T05:30:40;19.40;54.40
80695;DHT22;70059;42.702;23.312;2023-09-19T05:33:08;19.60;53.70
80695;DHT22;70059;42.702;23.312;2023-09-19T05:35:35;19.70;54.10
80695;DHT22;70059;42.702;23.312;2023-09-19T05:38:05;19.70;53.50
80695;DHT22;70059;42.702;23.312;2023-09-19T05:40:34;19.90;52.90
80695;DHT22;70059;42.702;23.312;2023-09-19T05:43:03;19.80;52.30
80695;DHT22;70059;42.702;23.312;2023-09-19T05:45:31;19.80;52.40
80695;DHT22;70059;42.702;23.312;2023-09-19T05:48:10;19.90;52.40
80695;DHT22;70059;42.702;23.312;2023-09-19T05:50:37;19.90;52.40
80695;DHT22;70059;42.702;23.312;2023-09-19T05:53:04;20.10;52.20
80695;DHT22;70059;42.702;23.312;2023-09-19T05:55:31;20.20;51.10
80695;DHT22;70059;42.702;23.312;2023-09-19T05:57:58;20.10;50.40
80695;DHT22;70059;42.702;23.312;2023-09-19T06:00:24;19.50;52.90
80695;DHT22;70059;42.702;23.312;2023-09-19T06:06:45;19.90;52.90
80695;DHT22;70059;42.702;23.312;2023-09-19T06:09:15;20.20;51.10
80695;DHT22;70059;42.702;23.312;2023-09-19T06:11:44;20.30;51.70
80695;DHT22;70059;42.702;23.312;2023-09-19T06:14:11;20.50;50.70
80695;DHT22;70059;42.702;23.312;2023-09-19T06:16:37;20.50;49.80
80695;DHT22;70059;42.702;23.312;2023-09-19T06:19:10;20.60;49.20
80695;DHT22;70059;42.702;23.312;2023-09-19T06:21:37;20.80;49.30
80695;DHT22;70059;42.702;23.312;2023-09-19T06:24:04;20.90;49.00
80695;DHT22;70059;42.702;23.312;2023-09-19T06:26:30;21.10;49.00
80695;DHT22;70059;42.702;23.312;2023-09-19T06:28:56;21.30;48.30
80695;DHT22;70059;42.702;23.312;2023-09-19T06:31:25;21.60;47.50
80695;DHT22;70059;42.702;23.312;2023-09-19T06:33:52;22.00;46.70
80695;DHT22;70059;42.702;23.312;2023-09-19T06:36:18;22.30;45.50
80695;DHT22;70059;42.702;23.312;2023-09-19T06:38:45;22.70;44.50
80695;DHT22;70059;42.702;23.312;2023-09-19T06:41:10;22.90;43.80
80695;DHT22;70059;42.702;23.312;2023-09-19T06:43:37;23.00;42.80
80695;DHT22;70059;42.702;23.312;2023-09-19T06:46:02;23.20;42.30
80695;DHT22;70059;42.702;23.312;2023-09-19T06:48:29;23.20;42.50
80695;DHT22;70059;42.702;23.312;2023-09-19T06:50:56;23.20;41.90
80695;DHT22;70059;42.702;23.312;2023-09-19T06:54:01;23.10;42.60
80695;DHT22;70059;42.702;23.312;2023-09-19T06:59:45;23.50;42.20
80695;DHT22;70059;42.702;23.312;2023-09-19T07:02:19;23.50;41.80
80695;DHT22;70059;42.702;23.312;2023-09-19T07:05:10;23.60;42.90
80695;DHT22;70059;42.702;23.312;2023-09-19T07:13:48;23.80;41.80
80695;DHT22;70059;42.702;23.312;2023-09-19T07:16:13;23.90;40.90
80695;DHT22;70059;42.702;23.312;2023-09-19T07:18:53;24.10;39.80
80695;DHT22;70059;42.702;23.312;2023-09-19T07:21:20;24.20;39.30
80695;DHT22;70059;42.702;23.312;2023-09-19T07:23:50;24.50;38.60
80695;DHT22;70059;42.702;23.312;2023-09-19T07:26:16;24.50;38.80
80695;DHT22;70059;42.702;23.312;2023-09-19T07:28:42;24.50;38.30
80695;DHT22;70059;42.702;23.312;2023-09-19T07:31:08;24.60;38.30
80695;DHT22;70059;42.702;23.312;2023-09-19T07:33:36;24.60;39.00
80695;DHT22;70059;42.702;23.312;2023-09-19T07:36:09;24.60;38.80
80695;DHT22;70059;42.702;23.312;2023-09-19T07:38:36;24.50;38.70
80695;DHT22;70059;42.702;23.312;2023-09-19T07:41:02;24.60;37.70
80695;DHT22;70059;42.702;23.312;2023-09-19T07:43:28;24.60;37.80
80695;DHT22;70059;42.702;23.312;2023-09-19T07:45:54;24.50;37.80
80695;DHT22;70059;42.702;23.312;2023-09-19T07:48:19;24.50;37.40
80695;DHT22;70059;42.702;23.312;2023-09-19T07:50:45;24.50;37.50
80695;DHT22;70059;42.702;23.312;2023-09-19T07:53:11;24.70;38.20
80695;DHT22;70059;42.702;23.312;2023-09-19T07:58:07;25.30;35.70
80695;DHT22;70059;42.702;23.312;2023-09-19T08:00:33;25.60;35.10
80695;DHT22;70059;42.702;23.312;2023-09-19T08:03:00;25.80;34.30
80695;DHT22;70059;42.702;23.312;2023-09-19T08:05:26;26.10;35.00
80695;DHT22;70059;42.702;23.312;2023-09-19T08:07:52;26.40;34.10
80695;DHT22;70059;42.702;23.312;2023-09-19T08:10:19;26.80;32.90
80695;DHT22;70059;42.702;23.312;2023-09-19T08:12:47;27.00;32.30
80695;DHT22;70059;42.702;23.312;2023-09-19T08:15:19;27.20;31.30
80695;DHT22;70059;42.702;23.312;2023-09-19T08:17:48;27.20;31.30
80695;DHT22;70059;42.702;23.312;2023-09-19T08:20:14;27.20;32.10
80695;DHT22;70059;42.702;23.312;2023-09-19T08:22:52;27.30;31.60
80695;DHT22;70059;42.702;23.312;2023-09-19T08:25:23;27.60;30.30
80695;DHT22;70059;42.702;23.312;2023-09-19T08:27:50;28.00;30.60
80695;DHT22;70059;42.702;23.312;2023-09-19T08:30:20;28.40;29.70
80695;DHT22;70059;42.702;23.312;2023-09-19T08:32:50;28.40;29.30
80695;DHT22;70059;42.702;23.312;2023-09-19T08:35:16;28.60;29.50
80695;DHT22;70059;42.702;23.312;2023-09-19T08:37:46;28.80;28.80
80695;DHT22;70059;42.702;23.312;2023-09-19T08:42:53;29.70;27.90
80695;DHT22;70059;42.702;23.312;2023-09-19T08:45:24;30.20;26.80
80695;DHT22;70059;42.702;23.312;2023-09-19T08:48:23;30.60;26.30
80695;DHT22;70059;42.702;23.312;2023-09-19T08:56:03;30.70;26.40
80695;DHT22;70059;42.702;23.312;2023-09-19T08:58:36;30.30;26.60
80695;DHT22;70059;42.702;23.312;2023-09-19T09:01:06;29.90;27.00
80695;DHT22;70059;42.702;23.312;2023-09-19T09:03:33;29.50;27.70
80695;DHT22;70059;42.702;23.312;2023-09-19T09:06:01;29.30;27.00
80695;DHT22;70059;42.702;23.312;2023-09-19T09:08:39;28.80;28.40
80695;DHT22;70059;42.702;23.312;2023-09-19T09:11:10;28.70;29.30
80695;DHT22;70059;42.702;23.312;2023-09-19T09:13:40;28.40;29.80
80695;DHT22;70059;42.702;23.312;2023-09-19T09:16:09;28.50;29.30
80695;DHT22;70059;42.702;23.312;2023-09-19T09:18:39;28.60;28.90
80695;DHT22;70059;42.702;23.312;2023-09-19T09:21:06;28.50;29.70
80695;DHT22;70059;42.702;23.312;2023-09-19T09:23:35;28.40;29.00
80695;DHT22;70059;42.702;23.312;2023-09-19T09:26:04;28.20;29.70
80695;DHT22;70059;42.702;23.312;2023-09-19T09:28:33;28.60;29.20
80695;DHT22;70059;42.702;23.312;2023-09-19T09:31:11;29.00;28.10
80695;DHT22;70059;42.702;23.312;2023-09-19T09:33:57;29.40;28.30
80695;DHT22;70059;42.702;23.312;2023-09-19T09:36:37;30.10;27.10
80695;DHT22;70059;42.702;23.312;2023-09-19T09:39:04;30.60;26.60
80695;DHT22;70059;42.702;23.312;2023-09-19T09:41:50;31.00;25.90
80695;DHT22;70059;42.702;23.312;2023-09-19T09:44:17;31.10;26.00
80695;DHT22;70059;42.702;23.312;2023-09-19T09:46:47;31.10;25.50
80695;DHT22;70059;42.702;23.312;2023-09-19T09:49:32;31.10;25.00
80695;DHT22;70059;42.702;23.312;2023-09-19T09:52:06;30.70;25.90
80695;DHT22;70059;42.702;23.312;2023-09-19T09:54:34;29.90;26.90
80695;DHT22;70059;42.702;23.312;2023-09-19T09:57:11;30.10;27.70
80695;DHT22;70059;42.702;23.312;2023-09-19T09:59:48;30.20;26.70
80695;DHT22;70059;42.702;23.312;2023-09-19T10:02:21;29.80;27.10
80695;DHT22;70059;42.702;23.312;2023-09-19T10:07:42;29.90;26.90
80695;DHT22;70059;42.702;23.312;2023-09-19T10:15:34;29.10;28.70
80695;DHT22;70059;42.702;23.312;2023-09-19T10:18:13;28.80;28.20
80695;DHT22;70059;42.702;23.312;2023-09-19T10:20:48;28.80;28.50
80695;DHT22;70059;42.702;23.312;2023-09-19T10:23:23;28.70;29.00
80695;DHT22;70059;42.702;23.312;2023-09-19T10:25:51;28.80;30.00
80695;DHT22;70059;42.702;23.312;2023-09-19T10:28:21;28.80;30.00
80695;DHT22;70059;42.702;23.312;2023-09-19T10:30:53;28.80;29.60
80695;DHT22;70059;42.702;23.312;2023-09-19T10:33:24;29.30;28.40
80695;DHT22;70059;42.702;23.312;2023-09-19T10:35:58;29.60;28.00
80695;DHT22;70059;42.702;23.312;2023-09-19T10:38:26;29.50;28.90
80695;DHT22;70059;42.702;23.312;2023-09-19T10:40:55;29.50;28.40
80695;DHT22;70059;42.702;23.312;2023-09-19T10:43:30;29.40;29.10
80695;DHT22;70059;42.702;23.312;2023-09-19T10:46:01;29.30;29.40
80695;DHT22;70059;42.702;23.312;2023-09-19T10:48:29;29.10;29.10
80695;DHT22;70059;42.702;23.312;2023-09-19T10:51:10;28.80;29.40
80695;DHT22;70059;42.702;23.312;2023-09-19T10:56:23;28.70;30.60
80695;DHT22;70059;42.702;23.312;2023-09-19T10:59:08;28.70;31.40
80695;DHT22;70059;42.702;23.312;2023-09-19T11:01:56;28.70;29.40
80695;DHT22;70059;42.702;23.312;2023-09-19T11:04:30;28.80;29.70
80695;DHT22;70059;42.702;23.312;2023-09-19T11:07:12;28.80;30.00
80695;DHT22;70059;42.702;23.312;2023-09-19T11:09:49;28.90;28.50
80695;DHT22;70059;42.702;23.312;2023-09-19T11:15:07;28.70;29.80
80695;DHT22;70059;42.702;23.312;2023-09-19T11:17:36;28.50;29.80
80695;DHT22;70059;42.702;23.312;2023-09-19T11:30:43;29.20;29.20
80695;DHT22;70059;42.702;23.312;2023-09-19T11:46:16;31.40;25.60
80695;DHT22;70059;42.702;23.312;2023-09-19T11:48:48;31.50;25.70
80695;DHT22;70059;42.702;23.312;2023-09-19T11:51:19;31.70;25.70
80695;DHT22;70059;42.702;23.312;2023-09-19T11:53:58;32.00;24.70
80695;DHT22;70059;42.702;23.312;2023-09-19T11:56:27;32.10;25.80
80695;DHT22;70059;42.702;23.312;2023-09-19T11:58:55;31.80;24.50
80695;DHT22;70059;42.702;23.312;2023-09-19T12:01:24;32.20;24.70
80695;DHT22;70059;42.702;23.312;2023-09-19T12:03:55;33.00;23.80
80695;DHT22;70059;42.702;23.312;2023-09-19T12:06:26;33.60;23.40
80695;DHT22;70059;42.702;23.312;2023-09-19T12:08:55;34.50;22.40
80695;DHT22;70059;42.702;23.312;2023-09-19T12:11:41;35.20;21.50
80695;DHT22;70059;42.702;23.312;2023-09-19T12:14:09;35.60;20.20
80695;DHT22;70059;42.702;23.312;2023-09-19T12:16:36;36.10;19.80
80695;DHT22;70059;42.702;23.312;2023-09-19T12:19:20;35.80;19.50
80695;DHT22;70059;42.702;23.312;2023-09-19T12:22:00;36.30;19.40
80695;DHT22;70059;42.702;23.312;2023-09-19T12:24:34;36.70;18.60
80695;DHT22;70059;42.702;23.312;2023-09-19T12:27:05;36.30;19.20
80695;DHT22;70059;42.702;23.312;2023-09-19T12:29:41;36.80;18.50
80695;DHT22;70059;42.702;23.312;2023-09-19T12:32:07;37.10;18.30
80695;DHT22;70059;42.702;23.312;2023-09-19T12:34:33;37.70;18.20
80695;DHT22;70059;42.702;23.312;2023-09-19T12:37:13;37.90;17.70
80695;DHT22;70059;42.702;23.312;2023-09-19T12:39:50;37.60;17.60
80695;DHT22;70059;42.702;23.312;2023-09-19T12:42:26;37.40;17.50
80695;DHT22;70059;42.702;23.312;2023-09-19T12:44:57;37.60;18.10
80695;DHT22;70059;42.702;23.312;2023-09-19T12:47:27;37.60;17.60
80695;DHT22;70059;42.702;23.312;2023-09-19T12:50:12;37.20;17.60
80695;DHT22;70059;42.702;23.312;2023-09-19T12:52:49;37.80;17.70
80695;DHT22;70059;42.702;23.312;2023-09-19T12:55:29;37.00;18.30
80695;DHT22;70059;42.702;23.312;2023-09-19T12:58:14;37.20;18.00
80695;DHT22;70059;42.702;23.312;2023-09-19T13:01:20;37.30;18.10
80695;DHT22;70059;42.702;23.312;2023-09-19T13:04:11;37.60;18.00
80695;DHT22;70059;42.702;23.312;2023-09-19T13:10:08;38.30;16.40
80695;DHT22;70059;42.702;23.312;2023-09-19T13:12:41;37.60;17.60
80695;DHT22;70059;42.702;23.312;2023-09-19T13:15:26;37.20;18.70
80695;DHT22;70059;42.702;23.312;2023-09-19T13:18:10;37.00;18.60
80695;DHT22;70059;42.702;23.312;2023-09-19T13:21:11;37.40;18.60
80695;DHT22;70059;42.702;23.312;2023-09-19T13:23:42;37.50;17.60
80695;DHT22;70059;42.702;23.312;2023-09-19T13:26:09;37.70;18.10
80695;DHT22;70059;42.702;23.312;2023-09-19T13:28:37;37.50;18.20
80695;DHT22;70059;42.702;23.312;2023-09-19T13:31:05;36.10;18.90
80695;DHT22;70059;42.702;23.312;2023-09-19T13:33:33;36.00;19.80
80695;DHT22;70059;42.702;23.312;2023-09-19T13:35:59;35.70;19.70
80695;DHT22;70059;42.702;23.312;2023-09-19T13:38:25;36.10;19.80
80695;DHT22;70059;42.702;23.312;2023-09-19T13:40:50;36.40;19.70
80695;DHT22;70059;42.702;23.312;2023-09-19T13:43:18;36.30;19.40
80695;DHT22;70059;42.702;23.312;2023-09-19T13:45:43;36.30;20.20
80695;DHT22;70059;42.702;23.312;2023-09-19T13:48:09;36.00;20.70
80695;DHT22;70059;42.702;23.312;2023-09-19T13:50:37;35.40;20.60
80695;DHT22;70059;42.702;23.312;2023-09-19T13:53:08;35.20;22.30
80695;DHT22;70059;42.702;23.312;2023-09-19T13:55:33;35.50;21.10
80695;DHT22;70059;42.702;23.312;2023-09-19T13:57:59;35.50;20.70
80695;DHT22;70059;42.702;23.312;2023-09-19T14:00:26;34.90;21.60
80695;DHT22;70059;42.702;23.312;2023-09-19T14:02:52;34.20;21.90
80695;DHT22;70059;42.702;23.312;2023-09-19T14:05:18;33.30;22.70
80695;DHT22;70059;42.702;23.312;2023-09-19T14:07:46;32.60;23.60
80695;DHT22;70059;42.702;23.312;2023-09-19T14:10:12;32.10;24.60
80695;DHT22;70059;42.702;23.312;2023-09-19T14:12:38;31.90;25.40
80695;DHT22;70059;42.702;23.312;2023-09-19T14:15:09;31.90;25.30
80695;DHT22;70059;42.702;23.312;2023-09-19T14:17:37;31.80;25.50
80695;DHT22;70059;42.702;23.312;2023-09-19T14:20:02;31.80;25.30
80695;DHT22;70059;42.702;23.312;2023-09-19T14:22:28;31.80;26.20
80695;DHT22;70059;42.702;23.312;2023-09-19T14:24:56;31.90;24.50
80695;DHT22;70059;42.702;23.312;2023-09-19T14:27:22;31.30;25.80
80695;DHT22;70059;42.702;23.312;2023-09-19T14:29:47;30.20;26.60
80695;DHT22;70059;42.702;23.312;2023-09-19T14:32:16;29.70;27.50
80695;DHT22;70059;42.702;23.312;2023-09-19T14:34:43;29.80;27.80
80695;DHT22;70059;42.702;23.312;2023-09-19T14:37:10;29.40;28.40
80695;DHT22;70059;42.702;23.312;2023-09-19T14:39:37;29.40;28.50
80695;DHT22;70059;42.702;23.312;2023-09-19T14:42:05;29.30;29.10
80695;DHT22;70059;42.702;23.312;2023-09-19T14:44:31;29.10;29.20
80695;DHT22;70059;42.702;23.312;2023-09-19T14:47:00;29.00;30.00
80695;DHT22;70059;42.702;23.312;2023-09-19T14:49:36;29.00;29.70
80695;DHT22;70059;42.702;23.312;2023-09-19T14:52:09;28.90;30.70
80695;DHT22;70059;42.702;23.312;2023-09-19T14:54:35;28.80;30.40
80695;DHT22;70059;42.702;23.312;2023-09-19T14:57:04;28.70;29.90
80695;DHT22;70059;42.702;23.312;2023-09-19T14:59:33;28.50;31.10
80695;DHT22;70059;42.702;23.312;2023-09-19T15:02:02;28.30;30.80
80695;DHT22;70059;42.702;23.312;2023-09-19T15:04:29;28.30;31.50
80695;DHT22;70059;42.702;23.312;2023-09-19T15:06:55;28.20;31.30
80695;DHT22;70059;42.702;23.312;2023-09-19T15:09:24;28.20;31.60
80695;DHT22;70059;42.702;23.312;2023-09-19T15:11:52;28.10;32.00
80695;DHT22;70059;42.702;23.312;2023-09-19T15:14:18;28.00;32.20
80695;DHT22;70059;42.702;23.312;2023-09-19T15:16:44;27.90;32.10
80695;DHT22;70059;42.702;23.312;2023-09-19T15:19:10;27.90;32.00
80695;DHT22;70059;42.702;23.312;2023-09-19T15:21:36;27.90;32.10
80695;DHT22;70059;42.702;23.312;2023-09-19T15:24:03;27.90;31.40
80695;DHT22;70059;42.702;23.312;2023-09-19T15:26:29;27.80;33.30
80695;DHT22;70059;42.702;23.312;2023-09-19T15:28:59;27.60;32.20
80695;DHT22;70059;42.702;23.312;2023-09-19T15:31:37;27.50;32.80
80695;DHT22;70059;42.702;23.312;2023-09-19T15:34:04;27.30;33.30
80695;DHT22;70059;42.702;23.312;2023-09-19T15:36:33;27.10;33.50
80695;DHT22;70059;42.702;23.312;2023-09-19T15:39:06;27.20;33.40
80695;DHT22;70059;42.702;23.312;2023-09-19T15:41:35;27.30;32.70
80695;DHT22;70059;42.702;23.312;2023-09-19T15:44:03;27.10;33.10
80695;DHT22;70059;42.702;23.312;2023-09-19T15:46:30;27.00;34.00
80695;DHT22;70059;42.702;23.312;2023-09-19T15:48:57;27.10;34.10
80695;DHT22;70059;42.702;23.312;2023-09-19T15:51:24;27.00;34.30
80695;DHT22;70059;42.702;23.312;2023-09-19T15:53:54;26.90;34.50
80695;DHT22;70059;42.702;23.312;2023-09-19T15:56:23;26.90;34.80
80695;DHT22;70059;42.702;23.312;2023-09-19T15:58:55;27.00;33.90
80695;DHT22;70059;42.702;23.312;2023-09-19T16:01:22;27.00;34.10
80695;DHT22;70059;42.702;23.312;2023-09-19T16:03:50;26.90;35.20
80695;DHT22;70059;42.702;23.312;2023-09-19T16:06:22;26.80;35.00
80695;DHT22;70059;42.702;23.312;2023-09-19T16:08:53;26.80;35.20
80695;DHT22;70059;42.702;23.312;2023-09-19T16:11:20;26.70;34.60
80695;DHT22;70059;42.702;23.312;2023-09-19T16:13:54;26.60;35.00
80695;DHT22;70059;42.702;23.312;2023-09-19T16:16:31;26.60;35.20
80695;DHT22;70059;42.702;23.312;2023-09-19T16:19:05;26.50;35.00
80695;DHT22;70059;42.702;23.312;2023-09-19T16:21:37;26.30;35.60
80695;DHT22;70059;42.702;23.312;2023-09-19T16:24:03;26.30;35.90
80695;DHT22;70059;42.702;23.312;2023-09-19T16:26:31;26.20;36.80
80695;DHT22;70059;42.702;23.312;2023-09-19T16:31:25;26.10;36.30
80695;DHT22;70059;42.702;23.312;2023-09-19T16:33:52;26.10;37.10
80695;DHT22;70059;42.702;23.312;2023-09-19T16:36:18;26.10;36.40
80695;DHT22;70059;42.702;23.312;2023-09-19T16:38:46;26.00;37.00
80695;DHT22;70059;42.702;23.312;2023-09-19T16:41:13;26.00;38.40
80695;DHT22;70059;42.702;23.312;2023-09-19T16:43:39;25.90;38.50
80695;DHT22;70059;42.702;23.312;2023-09-19T16:46:06;25.80;38.80
80695;DHT22;70059;42.702;23.312;2023-09-19T16:48:36;25.80;38.90
80695;DHT22;70059;42.702;23.312;2023-09-19T16:51:03;25.70;38.70
80695;DHT22;70059;42.702;23.312;2023-09-19T16:53:30;25.70;39.10
80695;DHT22;70059;42.702;23.312;2023-09-19T16:56:07;25.60;39.30
80695;DHT22;70059;42.702;23.312;2023-09-19T16:58:38;25.50;39.50